Time;durP1;ratioP1;P1;durP2;ratioP2;P2;SDS_P1;SDS_P2;PMS_P1;PMS_P2;Temp;Humidity;BMP_temperature;BMP_pressure;BME280_temperature;BME280_humidity;BME280_pressure;Samples;Min_cycle;Max_cycle;Signal;HPM_P1;HPM_P2
2021/05/09 00:00:18;;;;;;;6.35;4.10;;;;;;;;;;3607813;39;20035;-60
2021/05/09 00:02:43;;;;;;;7.43;4.38;;;;;;;;;;3604945;39;20031;-60
2021/05/09 00:05:10;;;;;;;7.40;4.35;;;;;;;;;;3608736;39;20050;-59
2021/05/09 00:07:35;;;;;;;9.05;4.15;;;;;;;;;;3605582;39;20043;-60
2021/05/09 00:10:01;;;;;;;5.90;3.90;;;;;;;;;;3605156;39;20071;-59
2021/05/09 00:12:26;;;;;;;5.78;3.78;;;;;;;;;;3604650;39;20035;-59
2021/05/09 00:14:52;;;;;;;7.85;3.58;;;;;;;;;;3606249;39;20102;-59
2021/05/09 00:17:17;;;;;;;7.05;3.33;;;;;;;;;;3604358;39;20043;-60
2021/05/09 00:19:44;;;;;;;6.13;3.63;;;;;;;;;;3606474;39;20050;-60
2021/05/09 00:22:09;;;;;;;6.40;4.20;;;;;;;;;;3604978;39;20151;-59
2021/05/09 00:24:34;;;;;;;7.78;4.82;;;;;;;;;;3604828;39;20103;-59
2021/05/09 00:27:00;;;;;;;6.00;4.07;;;;;;;;;;3605801;39;20043;-59
2021/05/09 00:29:25;;;;;;;7.43;3.90;;;;;;;;;;3603962;39;20031;-61
2021/05/09 00:31:51;;;;;;;8.48;4.18;;;;;;;;;;3606841;39;20035;-60
2021/05/09 00:34:16;;;;;;;6.03;3.85;;;;;;;;;;3605009;39;20035;-59
2021/05/09 00:36:41;;;;;;;6.57;3.58;;;;;;;;;;3604469;39;20050;-60
2021/05/09 00:39:07;;;;;;;5.10;3.35;;;;;;;;;;3603595;39;20083;-60
2021/05/09 00:41:32;;;;;;;9.43;3.40;;;;;;;;;;3606293;39;20547;-60
2021/05/09 00:43:58;;;;;;;4.80;3.10;;;;;;;;;;3604580;39;20649;-60
2021/05/09 00:46:23;;;;;;;5.15;2.80;;;;;;;;;;3604970;39;20128;-60
2021/05/09 00:48:49;;;;;;;6.35;3.38;;;;;;;;;;3605088;39;20086;-60
2021/05/09 00:51:14;;;;;;;4.75;3.13;;;;;;;;;;3606769;39;20040;-60
2021/05/09 00:53:42;;;;;;;5.97;3.42;;;;;;;;;;3604984;39;20032;-60
2021/05/09 00:56:11;;;;;;;4.93;2.80;;;;;;;;;;3603109;39;20098;-60
2021/05/09 00:58:38;;;;;;;5.00;3.00;;;;;;;;;;3603181;39;20028;-60
2021/05/09 01:01:03;;;;;;;6.40;3.28;;;;;;;;;;3604680;39;20038;-60
2021/05/09 01:03:31;;;;;;;3.88;2.53;;;;;;;;;;3604556;39;20067;-60
2021/05/09 01:05:59;;;;;;;4.55;3.25;;;;;;;;;;3605041;39;20136;-60
2021/05/09 01:08:26;;;;;;;6.43;3.45;;;;;;;;;;3604634;39;20063;-60
2021/05/09 01:10:51;;;;;;;5.07;3.08;;;;;;;;;;3604069;39;20058;-60
2021/05/09 01:13:17;;;;;;;4.97;3.35;;;;;;;;;;3604172;39;20035;-59
2021/05/09 01:15:42;;;;;;;4.93;3.35;;;;;;;;;;3604837;39;20094;-60
2021/05/09 01:18:08;;;;;;;4.32;3.10;;;;;;;;;;3604065;39;20328;-60
2021/05/09 01:20:36;;;;;;;5.15;3.28;;;;;;;;;;3606749;39;20035;-60
2021/05/09 01:23:02;;;;;;;9.00;3.30;;;;;;;;;;3608396;39;20149;-59
2021/05/09 01:25:28;;;;;;;4.95;3.17;;;;;;;;;;3607591;39;20075;-59
2021/05/09 01:27:55;;;;;;;5.00;3.55;;;;;;;;;;3607046;39;20402;-59
2021/05/09 01:30:21;;;;;;;5.38;3.25;;;;;;;;;;3606119;39;20046;-59
2021/05/09 01:32:46;;;;;;;4.47;3.05;;;;;;;;;;3606899;39;20043;-59
2021/05/09 01:35:12;;;;;;;6.50;3.58;;;;;;;;;;3605403;39;20192;-59
2021/05/09 01:37:38;;;;;;;5.30;3.25;;;;;;;;;;3606613;39;20039;-59
2021/05/09 01:40:05;;;;;;;4.47;3.25;;;;;;;;;;3605729;39;20054;-59
2021/05/09 01:42:31;;;;;;;4.43;3.00;;;;;;;;;;3606057;39;20038;-60
2021/05/09 01:44:57;;;;;;;9.65;3.55;;;;;;;;;;3606116;39;20048;-60
2021/05/09 01:47:23;;;;;;;5.53;3.28;;;;;;;;;;3607695;39;20039;-60
2021/05/09 01:49:49;;;;;;;6.65;3.35;;;;;;;;;;3598884;39;20054;-60
2021/05/09 01:52:15;;;;;;;5.43;3.25;;;;;;;;;;3606467;39;20282;-60
2021/05/09 01:54:40;;;;;;;5.43;3.47;;;;;;;;;;3605663;39;20063;-60
2021/05/09 01:57:05;;;;;;;6.97;3.90;;;;;;;;;;3605254;39;20471;-59
2021/05/09 01:59:31;;;;;;;8.40;3.75;;;;;;;;;;3605338;39;20048;-60
2021/05/09 02:01:56;;;;;;;6.70;3.33;;;;;;;;;;3606994;39;20058;-60
2021/05/09 02:04:22;;;;;;;5.32;3.85;;;;;;;;;;3606121;39;20382;-60
2021/05/09 02:06:47;;;;;;;8.13;3.95;;;;;;;;;;3605757;39;20047;-59
2021/05/09 02:09:13;;;;;;;5.80;3.63;;;;;;;;;;3605912;39;20063;-60
2021/05/09 02:11:38;;;;;;;5.97;3.85;;;;;;;;;;3604670;39;20369;-60
2021/05/09 02:14:04;;;;;;;7.30;3.47;;;;;;;;;;3608116;39;20039;-60
2021/05/09 02:16:29;;;;;;;7.78;3.80;;;;;;;;;;3607664;39;20039;-60
2021/05/09 02:18:55;;;;;;;7.50;3.97;;;;;;;;;;3608336;39;20032;-59
2021/05/09 02:21:20;;;;;;;7.15;3.63;;;;;;;;;;3606984;39;20502;-59
2021/05/09 02:23:45;;;;;;;8.40;3.72;;;;;;;;;;3607739;39;20040;-59
2021/05/09 02:26:11;;;;;;;6.25;3.78;;;;;;;;;;3607795;39;20028;-59
2021/05/09 02:28:43;;;;;;;5.85;3.80;;;;;;;;;;3609049;39;20039;-59
2021/05/09 02:31:09;;;;;;;7.68;4.10;;;;;;;;;;3605133;39;20053;-59
2021/05/09 02:33:34;;;;;;;6.30;3.85;;;;;;;;;;3607650;39;20027;-59
2021/05/09 02:36:00;;;;;;;5.57;3.78;;;;;;;;;;3607175;39;20036;-59
2021/05/09 02:38:25;;;;;;;7.75;3.60;;;;;;;;;;3606594;39;20039;-59
2021/05/09 02:40:50;;;;;;;6.43;3.83;;;;;;;;;;3607504;39;20031;-59
2021/05/09 02:43:17;;;;;;;6.15;3.88;;;;;;;;;;3607676;39;20031;-59
2021/05/09 02:45:43;;;;;;;5.72;4.10;;;;;;;;;;3608420;39;20124;-59
2021/05/09 02:48:09;;;;;;;5.43;4.00;;;;;;;;;;3607744;39;21087;-59
2021/05/09 02:50:34;;;;;;;5.80;3.90;;;;;;;;;;3609108;39;20836;-60
2021/05/09 02:53:00;;;;;;;5.22;4.22;;;;;;;;;;3607495;39;20047;-60
2021/05/09 02:55:25;;;;;;;7.85;4.00;;;;;;;;;;3609459;39;20062;-60
2021/05/09 02:57:51;;;;;;;6.68;3.97;;;;;;;;;;3608293;39;20046;-60
2021/05/09 03:00:16;;;;;;;5.95;3.83;;;;;;;;;;3607331;39;20039;-60
2021/05/09 03:02:42;;;;;;;6.57;4.20;;;;;;;;;;3607803;39;20040;-60
2021/05/09 03:05:08;;;;;;;5.70;4.05;;;;;;;;;;3608286;39;20378;-60
2021/05/09 03:07:33;;;;;;;6.82;4.55;;;;;;;;;;3608267;39;20132;-60
2021/05/09 03:09:59;;;;;;;5.28;3.78;;;;;;;;;;3608582;39;20036;-60
2021/05/09 03:12:24;;;;;;;5.97;3.83;;;;;;;;;;3605948;39;20056;-59
2021/05/09 03:14:49;;;;;;;6.75;4.25;;;;;;;;;;3608174;39;20042;-59
2021/05/09 03:17:15;;;;;;;8.48;4.07;;;;;;;;;;3607729;39;20032;-60
2021/05/09 03:19:40;;;;;;;6.38;4.47;;;;;;;;;;3608499;39;20032;-59
2021/05/09 03:22:05;;;;;;;6.90;3.97;;;;;;;;;;3607307;39;20051;-59
2021/05/09 03:24:31;;;;;;;5.68;3.95;;;;;;;;;;3609645;39;20284;-59
2021/05/09 03:26:56;;;;;;;6.95;3.95;;;;;;;;;;3607543;39;20046;-59
2021/05/09 03:29:22;;;;;;;7.70;4.03;;;;;;;;;;3609566;39;20083;-59
2021/05/09 03:31:47;;;;;;;6.00;4.05;;;;;;;;;;3606558;39;20827;-59
2021/05/09 03:34:12;;;;;;;5.90;4.18;;;;;;;;;;3609788;39;20283;-60
2021/05/09 03:36:38;;;;;;;8.02;4.63;;;;;;;;;;3608550;39;20051;-60
2021/05/09 03:39:04;;;;;;;7.25;4.10;;;;;;;;;;3610115;39;20040;-60
2021/05/09 03:41:30;;;;;;;5.32;4.00;;;;;;;;;;3607386;39;20047;-60
2021/05/09 03:43:55;;;;;;;5.75;4.05;;;;;;;;;;3608762;39;20120;-60
2021/05/09 03:46:20;;;;;;;5.60;3.70;;;;;;;;;;3606222;39;20035;-59
2021/05/09 03:48:46;;;;;;;6.05;3.92;;;;;;;;;;3605798;39;20043;-60
2021/05/09 03:51:11;;;;;;;5.20;3.70;;;;;;;;;;3609564;39;20033;-60
2021/05/09 03:53:37;;;;;;;6.05;4.25;;;;;;;;;;3607050;39;20042;-60
2021/05/09 03:56:02;;;;;;;7.38;4.40;;;;;;;;;;3605485;39;20028;-60
2021/05/09 03:58:28;;;;;;;5.45;3.90;;;;;;;;;;3606159;39;20514;-60
2021/05/09 04:00:53;;;;;;;6.95;4.75;;;;;;;;;;3607235;39;20028;-60
2021/05/09 04:03:30;;;;;;;6.28;4.40;;;;;;;;;;3610091;39;20047;-60
2021/05/09 04:05:56;;;;;;;6.82;4.20;;;;;;;;;;3606963;39;20031;-59
2021/05/09 04:08:23;;;;;;;6.72;4.10;;;;;;;;;;3606152;39;20068;-60
2021/05/09 04:10:51;;;;;;;10.77;4.70;;;;;;;;;;3606569;39;20075;-60
2021/05/09 04:13:17;;;;;;;6.97;3.97;;;;;;;;;;3606854;39;20062;-60
2021/05/09 04:15:42;;;;;;;6.10;4.15;;;;;;;;;;3606756;39;20042;-60
2021/05/09 04:18:08;;;;;;;6.70;4.35;;;;;;;;;;3605861;39;20040;-60
2021/05/09 04:20:34;;;;;;;8.30;4.75;;;;;;;;;;3609273;39;20046;-60
2021/05/09 04:23:08;;;;;;;4.53;3.22;;;;;;;;;;3608965;39;20035;-60
2021/05/09 04:25:34;;;;;;;5.82;3.80;;;;;;;;;;3606507;39;20038;-60
2021/05/09 04:27:59;;;;;;;5.43;4.10;;;;;;;;;;3607542;39;20027;-60
2021/05/09 04:30:25;;;;;;;5.75;3.58;;;;;;;;;;3605283;39;20372;-60
2021/05/09 04:33:01;;;;;;;5.22;3.55;;;;;;;;;;3607098;39;20039;-60
2021/05/09 04:35:27;;;;;;;5.30;3.70;;;;;;;;;;3606853;39;20043;-60
2021/05/09 04:37:52;;;;;;;6.53;4.25;;;;;;;;;;3605332;39;20260;-60
2021/05/09 04:40:18;;;;;;;7.68;4.00;;;;;;;;;;3606839;39;20159;-60
2021/05/09 04:42:44;;;;;;;7.32;4.60;;;;;;;;;;3606994;39;20444;-60
2021/05/09 04:45:10;;;;;;;8.40;3.45;;;;;;;;;;3607318;39;20039;-60
2021/05/09 04:47:35;;;;;;;4.90;3.53;;;;;;;;;;3605178;39;20066;-60
2021/05/09 04:50:02;;;;;;;5.78;3.65;;;;;;;;;;3607357;39;20051;-60
2021/05/09 04:52:27;;;;;;;6.50;4.07;;;;;;;;;;3607934;39;20032;-60
2021/05/09 04:54:53;;;;;;;8.48;3.60;;;;;;;;;;3608566;39;20127;-59
2021/05/09 04:57:18;;;;;;;7.28;3.90;;;;;;;;;;3610380;39;20339;-59
2021/05/09 04:59:44;;;;;;;5.35;3.75;;;;;;;;;;3607472;39;20036;-60
2021/05/09 05:02:09;;;;;;;7.95;3.75;;;;;;;;;;3605724;39;20046;-60
2021/05/09 05:04:34;;;;;;;4.63;3.70;;;;;;;;;;3608991;39;20431;-59
2021/05/09 05:07:00;;;;;;;5.53;4.05;;;;;;;;;;3610154;39;20038;-59
2021/05/09 05:09:25;;;;;;;6.55;4.10;;;;;;;;;;3608951;39;20047;-60
2021/05/09 05:11:52;;;;;;;6.78;4.10;;;;;;;;;;3607674;39;20038;-60
2021/05/09 05:14:18;;;;;;;4.72;3.40;;;;;;;;;;3609132;39;20052;-60
2021/05/09 05:16:43;;;;;;;5.55;3.92;;;;;;;;;;3608962;39;20050;-60
2021/05/09 05:19:09;;;;;;;5.10;3.80;;;;;;;;;;3611542;39;20141;-60
2021/05/09 05:21:34;;;;;;;5.38;3.58;;;;;;;;;;3609165;39;20050;-60
2021/05/09 05:23:59;;;;;;;6.00;3.83;;;;;;;;;;3608464;39;20127;-60
2021/05/09 05:26:25;;;;;;;6.55;4.10;;;;;;;;;;3612857;39;20031;-60
2021/05/09 05:28:50;;;;;;;5.55;3.83;;;;;;;;;;3606011;39;20407;-60
2021/05/09 05:31:16;;;;;;;6.53;3.72;;;;;;;;;;3609136;39;20476;-60
2021/05/09 05:33:41;;;;;;;5.95;4.15;;;;;;;;;;3609619;39;20036;-60
2021/05/09 05:36:08;;;;;;;9.60;4.47;;;;;;;;;;3609946;39;20031;-60
2021/05/09 05:38:34;;;;;;;10.07;4.47;;;;;;;;;;3607950;39;20039;-60
2021/05/09 05:41:00;;;;;;;5.53;3.75;;;;;;;;;;3607107;39;20043;-60
2021/05/09 05:43:28;;;;;;;7.32;4.25;;;;;;;;;;3609222;39;20042;-60
2021/05/09 05:45:55;;;;;;;6.18;3.83;;;;;;;;;;3609270;39;20036;-60
2021/05/09 05:48:21;;;;;;;7.18;4.72;;;;;;;;;;3608491;39;20055;-60
2021/05/09 05:50:47;;;;;;;6.60;4.82;;;;;;;;;;3608565;39;20331;-60
2021/05/09 05:53:17;;;;;;;6.68;4.93;;;;;;;;;;3606963;39;20244;-60
2021/05/09 05:55:43;;;;;;;7.85;4.55;;;;;;;;;;3611001;39;20135;-60
2021/05/09 05:58:08;;;;;;;7.43;5.00;;;;;;;;;;3609100;39;20039;-60
2021/05/09 06:00:34;;;;;;;6.00;4.45;;;;;;;;;;3607094;39;20054;-60
2021/05/09 06:02:59;;;;;;;9.73;5.75;;;;;;;;;;3610308;39;20044;-60
2021/05/09 06:05:25;;;;;;;6.82;4.80;;;;;;;;;;3608146;39;20052;-60
2021/05/09 06:07:50;;;;;;;7.10;4.85;;;;;;;;;;3607922;39;20043;-60
2021/05/09 06:10:16;;;;;;;7.43;5.35;;;;;;;;;;3600919;39;20047;-60
2021/05/09 06:12:41;;;;;;;7.38;6.40;;;;;;;;;;3609139;39;20036;-60
2021/05/09 06:15:07;;;;;;;8.88;4.75;;;;;;;;;;3611415;39;20031;-60
2021/05/09 06:17:33;;;;;;;8.57;6.05;;;;;;;;;;3610585;39;20028;-60
2021/05/09 06:19:58;;;;;;;6.05;3.97;;;;;;;;;;3607965;39;20303;-61
2021/05/09 06:22:23;;;;;;;7.88;6.20;;;;;;;;;;3608496;39;20042;-60
2021/05/09 06:24:49;;;;;;;10.90;7.97;;;;;;;;;;3607356;39;20058;-61
2021/05/09 06:27:14;;;;;;;10.85;5.93;;;;;;;;;;3608565;39;20064;-59
2021/05/09 06:29:40;;;;;;;5.80;4.35;;;;;;;;;;3610311;39;20298;-59
2021/05/09 06:32:05;;;;;;;7.85;5.00;;;;;;;;;;3609493;39;20028;-60
2021/05/09 06:34:31;;;;;;;6.20;4.82;;;;;;;;;;3607500;39;20030;-59
2021/05/09 06:36:56;;;;;;;6.57;4.43;;;;;;;;;;3607533;39;20028;-59
2021/05/09 06:39:26;;;;;;;5.78;4.07;;;;;;;;;;3610408;39;20049;-60
2021/05/09 06:41:52;;;;;;;8.07;4.07;;;;;;;;;;3610143;39;20770;-59
2021/05/09 06:44:18;;;;;;;6.80;4.22;;;;;;;;;;3609586;39;20289;-59
2021/05/09 06:46:43;;;;;;;9.00;4.80;;;;;;;;;;3609241;39;20024;-59
2021/05/09 06:49:09;;;;;;;5.55;4.10;;;;;;;;;;3607408;39;20044;-59
2021/05/09 06:51:35;;;;;;;12.73;4.82;;;;;;;;;;3608991;39;20351;-59
2021/05/09 06:54:00;;;;;;;6.25;4.28;;;;;;;;;;3607964;39;20104;-60
2021/05/09 06:56:27;;;;;;;8.55;4.38;;;;;;;;;;3609856;39;20048;-59
2021/05/09 06:58:52;;;;;;;14.00;5.07;;;;;;;;;;3608756;39;20318;-59
2021/05/09 07:01:17;;;;;;;6.75;4.55;;;;;;;;;;3609114;39;20046;-60
2021/05/09 07:03:43;;;;;;;6.00;4.25;;;;;;;;;;3608394;39;20043;-59
2021/05/09 07:06:09;;;;;;;9.70;4.97;;;;;;;;;;3608666;39;20461;-59
2021/05/09 07:08:34;;;;;;;11.10;4.43;;;;;;;;;;3610184;39;20039;-59
2021/05/09 07:11:01;;;;;;;7.05;4.63;;;;;;;;;;3606410;39;20064;-60
2021/05/09 07:13:27;;;;;;;5.97;4.22;;;;;;;;;;3606404;39;20397;-60
2021/05/09 07:15:52;;;;;;;8.80;4.68;;;;;;;;;;3605741;39;20032;-59
2021/05/09 07:18:21;;;;;;;8.32;4.55;;;;;;;;;;3603845;39;20344;-60
2021/05/09 07:20:51;;;;;;;10.05;3.80;;;;;;;;;;3604749;39;20324;-60
2021/05/09 07:23:17;;;;;;;7.72;5.63;;;;;;;;;;3608997;39;20030;-60
2021/05/09 07:25:42;;;;;;;6.45;4.15;;;;;;;;;;3607829;39;20035;-60
2021/05/09 07:28:10;;;;;;;7.85;4.45;;;;;;;;;;3608917;39;20136;-60
2021/05/09 07:30:38;;;;;;;5.32;3.55;;;;;;;;;;3606936;39;20062;-60
2021/05/09 07:33:04;;;;;;;6.45;3.63;;;;;;;;;;3606895;39;20035;-60
2021/05/09 07:35:29;;;;;;;5.68;3.08;;;;;;;;;;3608369;39;20530;-60
2021/05/09 07:37:55;;;;;;;4.78;3.08;;;;;;;;;;3606420;39;20139;-60
2021/05/09 07:40:21;;;;;;;3.88;2.58;;;;;;;;;;3609711;39;20023;-59
2021/05/09 07:42:47;;;;;;;5.82;3.25;;;;;;;;;;3606631;39;20043;-60
2021/05/09 07:45:21;;;;;;;4.30;2.60;;;;;;;;;;3607288;39;20047;-60
2021/05/09 07:47:46;;;;;;;6.15;2.92;;;;;;;;;;3607563;39;20108;-60
2021/05/09 07:50:13;;;;;;;5.72;3.15;;;;;;;;;;3600830;39;20571;-60
2021/05/09 07:52:39;;;;;;;4.75;2.85;;;;;;;;;;3602635;39;20028;-60
2021/05/09 07:55:06;;;;;;;8.40;2.60;;;;;;;;;;3609608;39;20050;-60
2021/05/09 07:57:32;;;;;;;8.77;2.90;;;;;;;;;;3608597;39;20035;-59
2021/05/09 07:59:57;;;;;;;7.05;2.63;;;;;;;;;;3604966;39;20057;-60
2021/05/09 08:02:23;;;;;;;5.13;3.08;;;;;;;;;;3605623;39;20054;-60
2021/05/09 08:04:49;;;;;;;8.55;2.53;;;;;;;;;;3608969;39;20458;-60
2021/05/09 08:07:14;;;;;;;3.75;2.40;;;;;;;;;;3610243;39;20286;-60
2021/05/09 08:09:39;;;;;;;6.57;2.72;;;;;;;;;;3607296;39;20042;-60
2021/05/09 08:12:05;;;;;;;4.45;2.67;;;;;;;;;;3609214;39;20028;-60
2021/05/09 08:14:31;;;;;;;3.45;2.05;;;;;;;;;;3609749;39;20059;-60
2021/05/09 08:16:57;;;;;;;6.13;2.70;;;;;;;;;;3607865;39;20032;-60
2021/05/09 08:19:22;;;;;;;6.10;2.20;;;;;;;;;;3607251;39;20031;-60
2021/05/09 08:21:50;;;;;;;3.97;2.40;;;;;;;;;;3609605;39;20051;-60
2021/05/09 08:24:15;;;;;;;4.95;2.47;;;;;;;;;;3607537;39;20450;-60
2021/05/09 08:26:40;;;;;;;4.13;1.90;;;;;;;;;;3602312;39;20051;-60
2021/05/09 08:29:07;;;;;;;4.78;2.35;;;;;;;;;;3607293;39;20035;-60
2021/05/09 08:31:32;;;;;;;3.63;2.05;;;;;;;;;;3610518;39;20042;-59
2021/05/09 08:33:59;;;;;;;3.35;1.70;;;;;;;;;;3608041;39;20036;-60
2021/05/09 08:36:24;;;;;;;4.43;2.15;;;;;;;;;;3610368;39;20046;-60
2021/05/09 08:38:50;;;;;;;4.63;2.40;;;;;;;;;;3609396;39;20302;-59
2021/05/09 08:41:15;;;;;;;3.92;2.13;;;;;;;;;;3608586;39;20035;-60
2021/05/09 08:43:42;;;;;;;3.65;1.83;;;;;;;;;;3609757;39;20072;-59
2021/05/09 08:46:08;;;;;;;3.47;1.95;;;;;;;;;;3611604;39;20035;-60
2021/05/09 08:48:36;;;;;;;4.82;2.05;;;;;;;;;;3610445;39;20409;-60
2021/05/09 08:51:03;;;;;;;5.22;2.30;;;;;;;;;;3605431;39;20028;-60
2021/05/09 08:53:30;;;;;;;4.15;1.83;;;;;;;;;;3608425;39;20039;-60
2021/05/09 08:55:56;;;;;;;6.30;1.98;;;;;;;;;;3608680;39;20046;-60
2021/05/09 08:58:21;;;;;;;3.92;1.67;;;;;;;;;;3608273;39;20043;-60
2021/05/09 09:00:46;;;;;;;5.75;1.83;;;;;;;;;;3611698;39;20036;-60
2021/05/09 09:03:13;;;;;;;7.28;2.17;;;;;;;;;;3611879;39;20053;-60
2021/05/09 09:05:47;;;;;;;4.25;1.55;;;;;;;;;;3609391;39;20394;-59
2021/05/09 09:08:14;;;;;;;4.43;2.08;;;;;;;;;;3609542;39;20071;-59
2021/05/09 09:10:44;;;;;;;6.03;1.83;;;;;;;;;;3608756;39;20038;-59
2021/05/09 09:13:21;;;;;;;3.75;2.00;;;;;;;;;;3609415;39;20047;-59
2021/05/09 09:15:52;;;;;;;3.55;2.15;;;;;;;;;;3608921;39;20036;-60
2021/05/09 09:18:45;;;;;;;4.22;2.00;;;;;;;;;;3609474;39;20041;-60
2021/05/09 09:21:23;;;;;;;4.68;2.22;;;;;;;;;;3611308;39;20057;-60
2021/05/09 09:24:11;;;;;;;3.90;2.22;;;;;;;;;;3607796;39;20073;-59
2021/05/09 09:26:50;;;;;;;4.63;2.25;;;;;;;;;;3607944;39;20036;-60
2021/05/09 09:29:22;;;;;;;6.57;1.80;;;;;;;;;;3606857;39;20058;-59
2021/05/09 09:31:52;;;;;;;3.13;1.70;;;;;;;;;;3610114;39;20043;-60
2021/05/09 09:34:18;;;;;;;3.58;1.85;;;;;;;;;;3606295;39;20366;-60
2021/05/09 09:36:45;;;;;;;2.75;1.50;;;;;;;;;;3609379;39;20093;-60
2021/05/09 09:39:10;;;;;;;4.88;1.92;;;;;;;;;;3608647;39;20036;-60
2021/05/09 09:41:47;;;;;;;5.28;1.70;;;;;;;;;;3608919;39;20079;-60
2021/05/09 09:44:15;;;;;;;6.65;1.95;;;;;;;;;;3610605;39;20035;-60
2021/05/09 09:46:48;;;;;;;4.28;2.25;;;;;;;;;;3608191;39;20028;-59
2021/05/09 09:49:29;;;;;;;4.03;1.80;;;;;;;;;;3608060;39;20035;-60
2021/05/09 09:52:00;;;;;;;5.18;2.30;;;;;;;;;;3609300;39;20043;-60
2021/05/09 09:54:46;;;;;;;4.82;2.10;;;;;;;;;;3607318;39;20063;-60
2021/05/09 09:57:29;;;;;;;4.50;2.10;;;;;;;;;;3610804;39;20043;-60
2021/05/09 10:00:07;;;;;;;7.18;3.03;;;;;;;;;;3610633;39;20050;-60
2021/05/09 10:02:32;;;;;;;5.65;3.70;;;;;;;;;;3610762;39;20036;-60
2021/05/09 10:04:59;;;;;;;4.45;2.90;;;;;;;;;;3608919;39;20393;-60
2021/05/09 10:07:26;;;;;;;5.88;3.00;;;;;;;;;;3608751;39;20039;-60
2021/05/09 10:09:51;;;;;;;5.55;3.97;;;;;;;;;;3609190;39;20049;-60
2021/05/09 10:12:17;;;;;;;6.72;5.93;;;;;;;;;;3611572;39;20040;-60
2021/05/09 10:14:43;;;;;;;5.88;4.30;;;;;;;;;;3608452;39;20039;-60
2021/05/09 10:17:10;;;;;;;6.32;2.70;;;;;;;;;;3611519;39;20050;-60
2021/05/09 10:19:35;;;;;;;4.20;2.67;;;;;;;;;;3607662;39;20119;-60
2021/05/09 10:22:28;;;;;;;5.50;2.17;;;;;;;;;;3607165;39;20040;-62
2021/05/09 10:24:54;;;;;;;4.22;2.28;;;;;;;;;;3608836;39;20479;-63
2021/05/09 10:27:32;;;;;;;3.05;1.80;;;;;;;;;;3609652;39;20043;-62
2021/05/09 10:29:58;;;;;;;8.85;2.30;;;;;;;;;;3608475;39;20288;-63
2021/05/09 10:32:26;;;;;;;4.07;2.35;;;;;;;;;;3609290;39;20036;-63
2021/05/09 10:34:54;;;;;;;3.60;2.10;;;;;;;;;;3608948;39;20043;-63
2021/05/09 10:37:35;;;;;;;5.43;2.15;;;;;;;;;;3607664;39;20036;-62
2021/05/09 10:40:17;;;;;;;4.30;2.53;;;;;;;;;;3610462;39;20033;-61
2021/05/09 10:42:42;;;;;;;2.53;1.40;;;;;;;;;;3610934;39;20389;-61
2021/05/09 10:45:08;;;;;;;3.45;1.90;;;;;;;;;;3611609;39;20027;-62
2021/05/09 10:47:34;;;;;;;5.10;1.67;;;;;;;;;;3608760;39;20030;-63
2021/05/09 10:50:14;;;;;;;3.25;1.60;;;;;;;;;;3608413;39;20032;-63
2021/05/09 10:52:42;;;;;;;3.28;1.40;;;;;;;;;;3607808;39;20034;-63
2021/05/09 10:55:39;;;;;;;4.35;1.77;;;;;;;;;;3608349;39;20123;-63
2021/05/09 10:58:07;;;;;;;3.90;1.45;;;;;;;;;;3608862;39;20059;-63
2021/05/09 11:01:00;;;;;;;4.97;1.65;;;;;;;;;;3608084;39;20064;-64
2021/05/09 11:03:34;;;;;;;3.75;1.63;;;;;;;;;;3606773;39;20036;-65
2021/05/09 11:06:14;;;;;;;3.35;1.58;;;;;;;;;;3608841;39;20046;-64
2021/05/09 11:08:42;;;;;;;4.68;1.73;;;;;;;;;;3609335;39;20129;-63
2021/05/09 11:11:34;;;;;;;4.55;1.95;;;;;;;;;;3606796;39;20046;-63
2021/05/09 11:13:59;;;;;;;3.03;1.50;;;;;;;;;;3608734;39;20039;-65
2021/05/09 11:16:38;;;;;;;2.95;1.27;;;;;;;;;;3608494;39;20483;-64
2021/05/09 11:19:17;;;;;;;4.30;1.63;;;;;;;;;;3606471;39;20072;-63
2021/05/09 11:21:49;;;;;;;3.45;1.73;;;;;;;;;;3607652;39;20309;-63
2021/05/09 11:24:20;;;;;;;6.70;1.75;;;;;;;;;;3609568;39;20120;-62
2021/05/09 11:26:47;;;;;;;3.15;1.35;;;;;;;;;;3605725;39;20039;-63
2021/05/09 11:29:15;;;;;;;2.75;1.65;;;;;;;;;;3610002;39;20545;-64
2021/05/09 11:31:42;;;;;;;2.95;1.60;;;;;;;;;;3608286;39;20040;-63
2021/05/09 11:34:08;;;;;;;4.47;1.55;;;;;;;;;;3604673;39;20032;-63
2021/05/09 11:36:35;;;;;;;4.32;2.00;;;;;;;;;;3606950;39;20032;-63
2021/05/09 11:39:12;;;;;;;3.28;1.80;;;;;;;;;;3609677;39;20064;-64
2021/05/09 11:41:54;;;;;;;2.60;1.42;;;;;;;;;;3608723;39;20024;-64
2021/05/09 11:44:26;;;;;;;2.47;1.20;;;;;;;;;;3605884;39;20036;-64
2021/05/09 11:46:52;;;;;;;2.95;1.38;;;;;;;;;;3607400;39;20036;-63
2021/05/09 11:49:25;;;;;;;4.25;1.70;;;;;;;;;;3608373;39;20053;-63
2021/05/09 11:51:56;;;;;;;5.97;1.80;;;;;;;;;;3609661;39;20047;-63
2021/05/09 11:54:24;;;;;;;6.65;1.50;;;;;;;;;;3608261;39;20036;-62
2021/05/09 11:56:57;;;;;;;4.30;1.63;;;;;;;;;;3610080;39;20055;-63
2021/05/09 11:59:43;;;;;;;3.75;1.60;;;;;;;;;;3607829;39;20039;-63
2021/05/09 12:02:20;;;;;;;2.80;1.40;;;;;;;;;;3608002;39;20063;-62
2021/05/09 12:05:15;;;;;;;4.45;1.50;;;;;;;;;;3608552;39;20394;-63
2021/05/09 12:07:41;;;;;;;3.83;1.50;;;;;;;;;;3609084;39;20283;-64
2021/05/09 12:10:08;;;;;;;5.75;1.60;;;;;;;;;;3609646;39;20047;-63
2021/05/09 12:12:36;;;;;;;3.28;1.75;;;;;;;;;;3601356;39;20047;-62
2021/05/09 12:15:18;;;;;;;4.53;1.50;;;;;;;;;;3607468;39;20031;-63
2021/05/09 12:17:50;;;;;;;2.45;1.40;;;;;;;;;;3607055;39;20053;-61
2021/05/09 12:20:38;;;;;;;4.20;1.42;;;;;;;;;;3608992;39;20041;-61
2021/05/09 12:23:24;;;;;;;2.90;1.17;;;;;;;;;;3607874;39;20044;-63
2021/05/09 12:25:50;;;;;;;2.88;1.55;;;;;;;;;;3608376;39;20114;-62
2021/05/09 12:28:26;;;;;;;2.55;1.25;;;;;;;;;;3607412;39;20050;-62
2021/05/09 12:30:52;;;;;;;3.00;1.27;;;;;;;;;;3605407;39;20063;-61
2021/05/09 12:33:25;;;;;;;2.85;1.50;;;;;;;;;;3609705;39;20060;-61
2021/05/09 12:35:50;;;;;;;2.80;1.50;;;;;;;;;;3609318;39;20643;-61
2021/05/09 12:38:30;;;;;;;4.78;1.30;;;;;;;;;;3605311;39;20059;-61
2021/05/09 12:41:10;;;;;;;2.63;1.27;;;;;;;;;;3609588;39;20119;-61
2021/05/09 12:43:52;;;;;;;3.05;1.40;;;;;;;;;;3606202;39;20132;-64
2021/05/09 12:46:41;;;;;;;3.17;1.60;;;;;;;;;;3609715;39;20116;-62
2021/05/09 12:49:08;;;;;;;5.55;1.45;;;;;;;;;;3605972;39;20266;-62
2021/05/09 12:51:33;;;;;;;2.75;1.20;;;;;;;;;;3610430;39;20282;-62
2021/05/09 12:53:59;;;;;;;2.80;1.45;;;;;;;;;;3606304;39;20039;-63
2021/05/09 12:56:29;;;;;;;3.50;1.55;;;;;;;;;;3606684;39;20035;-64
2021/05/09 12:59:04;;;;;;;2.70;1.30;;;;;;;;;;3609882;39;20035;-64
2021/05/09 13:01:31;;;;;;;4.72;1.67;;;;;;;;;;3608336;39;20119;-64
2021/05/09 13:03:57;;;;;;;4.60;1.40;;;;;;;;;;3609283;39;20036;-63
2021/05/09 13:06:23;;;;;;;10.60;1.70;;;;;;;;;;3607609;39;20043;-64
2021/05/09 13:08:49;;;;;;;3.60;1.40;;;;;;;;;;3607505;39;20053;-64
2021/05/09 13:11:14;;;;;;;4.60;1.25;;;;;;;;;;3605134;39;20576;-63
2021/05/09 13:13:40;;;;;;;2.70;1.25;;;;;;;;;;3603749;39;20120;-63
2021/05/09 13:16:06;;;;;;;9.00;1.50;;;;;;;;;;3607214;39;20024;-64
2021/05/09 13:18:31;;;;;;;3.47;1.60;;;;;;;;;;3610294;39;20044;-64
2021/05/09 13:20:57;;;;;;;3.63;1.50;;;;;;;;;;3611502;39;20090;-64
2021/05/09 13:23:22;;;;;;;3.13;1.42;;;;;;;;;;3609212;39;20019;-64
2021/05/09 13:25:50;;;;;;;2.38;1.33;;;;;;;;;;3610378;39;20039;-64
2021/05/09 13:28:15;;;;;;;5.25;1.50;;;;;;;;;;3609353;39;20038;-64
2021/05/09 13:30:41;;;;;;;3.30;1.40;;;;;;;;;;3608272;39;20036;-64
2021/05/09 13:33:06;;;;;;;9.70;1.70;;;;;;;;;;3611269;39;20031;-64
2021/05/09 13:35:32;;;;;;;2.63;1.42;;;;;;;;;;3610197;39;20023;-64
2021/05/09 13:37:57;;;;;;;3.90;1.40;;;;;;;;;;3609384;39;20031;-64
2021/05/09 13:40:23;;;;;;;4.43;1.50;;;;;;;;;;3609946;39;20324;-64
2021/05/09 13:42:48;;;;;;;4.03;1.38;;;;;;;;;;3608070;39;20915;-63
2021/05/09 13:45:14;;;;;;;2.53;1.30;;;;;;;;;;3611965;39;20088;-63
2021/05/09 13:47:39;;;;;;;4.13;1.50;;;;;;;;;;3608363;39;20112;-62
2021/05/09 13:50:05;;;;;;;3.42;1.70;;;;;;;;;;3611095;39;20047;-63
2021/05/09 13:52:31;;;;;;;8.18;1.88;;;;;;;;;;3610085;39;20038;-63
2021/05/09 13:54:57;;;;;;;2.50;1.20;;;;;;;;;;3608293;39;20370;-63
2021/05/09 13:57:22;;;;;;;3.28;1.50;;;;;;;;;;3608598;39;20043;-63
2021/05/09 13:59:47;;;;;;;3.90;1.80;;;;;;;;;;3610153;39;20047;-63
2021/05/09 14:02:13;;;;;;;3.28;1.50;;;;;;;;;;3610293;39;20042;-63
2021/05/09 14:04:38;;;;;;;2.90;1.20;;;;;;;;;;3608513;39;20139;-63
2021/05/09 14:07:03;;;;;;;3.17;1.45;;;;;;;;;;3609962;39;20044;-63
2021/05/09 14:09:29;;;;;;;2.88;1.58;;;;;;;;;;3609068;39;20135;-63
2021/05/09 14:12:13;;;;;;;4.20;1.60;;;;;;;;;;3609824;39;20043;-63
2021/05/09 14:14:40;;;;;;;3.40;1.70;;;;;;;;;;3608413;39;20406;-63
2021/05/09 14:17:06;;;;;;;4.93;1.42;;;;;;;;;;3610802;39;20076;-63
2021/05/09 14:19:31;;;;;;;5.32;1.70;;;;;;;;;;3610500;39;20032;-63
2021/05/09 14:21:56;;;;;;;3.72;1.55;;;;;;;;;;3610265;39;20440;-62
2021/05/09 14:24:22;;;;;;;2.97;1.35;;;;;;;;;;3609148;39;20027;-62
2021/05/09 14:26:48;;;;;;;3.20;1.50;;;;;;;;;;3608119;39;20046;-62
2021/05/09 14:29:13;;;;;;;2.95;1.63;;;;;;;;;;3611156;39;20035;-62
2021/05/09 14:31:39;;;;;;;5.05;1.63;;;;;;;;;;3608574;39;20120;-63
2021/05/09 14:34:04;;;;;;;2.75;1.30;;;;;;;;;;3609595;39;20112;-63
2021/05/09 14:36:30;;;;;;;3.63;1.30;;;;;;;;;;3608997;39;20139;-63
2021/05/09 14:38:57;;;;;;;2.90;1.55;;;;;;;;;;3607455;39;20040;-62
2021/05/09 14:41:22;;;;;;;4.18;1.75;;;;;;;;;;3610426;39;20568;-63
2021/05/09 14:43:47;;;;;;;3.10;1.60;;;;;;;;;;3610321;39;20051;-63
2021/05/09 14:46:13;;;;;;;3.22;1.48;;;;;;;;;;3610623;39;20127;-62